createdAt,value
2018-08-22T00:01:22.670Z,55.68
2018-08-22T00:03:54.635Z,55.48
2018-08-22T00:06:26.796Z,55.20
2018-08-22T00:08:58.730Z,54.79
2018-08-22T00:11:30.355Z,54.98
2018-08-22T00:14:02.217Z,55.24
2018-08-22T00:16:33.970Z,56.53
2018-08-22T00:19:05.786Z,55.96
2018-08-22T00:21:37.317Z,55.38
2018-08-22T00:24:09.271Z,55.75
2018-08-22T00:28:05.620Z,54.57
2018-08-22T00:30:37.547Z,55.40
2018-08-22T00:33:09.135Z,55.85
2018-08-22T00:35:41.176Z,56.63
2018-08-22T00:38:12.954Z,56.07
2018-08-22T00:40:44.584Z,55.47
2018-08-22T00:43:16.479Z,56.42
2018-08-22T00:45:49.273Z,55.14
2018-08-22T00:48:20.999Z,55.67
2018-08-22T00:50:52.859Z,55.09
2018-08-22T00:53:24.743Z,55.05
2018-08-22T00:55:56.611Z,55.48
2018-08-22T00:58:28.475Z,56.27
2018-08-22T01:01:00.084Z,55.15
2018-08-22T01:03:31.910Z,54.99
2018-08-22T01:06:04.067Z,55.37
2018-08-22T01:08:35.895Z,53.39
2018-08-22T01:11:08.098Z,53.46
2018-08-22T01:13:39.998Z,54.84
2018-08-22T01:16:12.039Z,63.08
2018-08-22T01:18:43.958Z,62.44
2018-08-22T01:21:15.657Z,61.43
2018-08-22T01:23:47.577Z,62.61
2018-08-22T01:26:19.459Z,61.38
2018-08-22T01:28:51.212Z,61.07
2018-08-22T01:31:23.004Z,59.54
2018-08-22T01:33:54.636Z,63.56
2018-08-22T01:36:26.949Z,62.84
2018-08-22T01:38:58.628Z,62.05
2018-08-22T01:41:30.779Z,64.06
2018-08-22T01:44:02.507Z,62.50
2018-08-22T01:46:34.519Z,63.73
2018-08-22T01:49:06.223Z,62.36
2018-08-22T01:51:37.946Z,62.61
2018-08-22T01:54:09.539Z,62.25
2018-08-22T01:56:41.542Z,61.98
2018-08-22T01:59:13.020Z,62.53
2018-08-22T02:01:44.935Z,61.14
2018-08-22T02:04:16.865Z,64.48
2018-08-22T02:06:51.311Z,62.33
2018-08-22T02:09:23.175Z,64.30
2018-08-22T02:11:56.641Z,63.21
2018-08-22T02:14:29.374Z,61.48
2018-08-22T02:17:01.501Z,59.51
2018-08-22T02:19:33.537Z,61.08
2018-08-22T02:22:06.075Z,65.52
2018-08-22T02:24:37.922Z,60.74
2018-08-22T02:27:09.916Z,59.78
2018-08-22T02:29:42.136Z,60.67
2018-08-22T02:32:14.452Z,63.21
2018-08-22T02:34:46.658Z,64.69
2018-08-22T02:37:19.174Z,64.71
2018-08-22T02:39:51.654Z,63.42
2018-08-22T02:42:23.584Z,62.27
2018-08-22T02:44:55.624Z,65.14
2018-08-22T02:47:27.506Z,62.29
2018-08-22T02:49:59.683Z,63.94
2018-08-22T02:52:31.695Z,63.47
2018-08-22T02:55:03.418Z,63.21
2018-08-22T02:57:35.302Z,64.54
2018-08-22T03:00:07.079Z,63.94
2018-08-22T03:02:39.026Z,63.48
2018-08-22T03:05:10.739Z,64.22
2018-08-22T03:07:42.638Z,64.45
2018-08-22T03:10:14.140Z,64.01
2018-08-22T03:12:46.181Z,65.42
2018-08-22T03:15:17.676Z,62.81
2018-08-22T03:17:50.594Z,61.90
2018-08-22T03:20:22.072Z,59.99
2018-08-22T03:22:53.776Z,52.65
2018-08-22T03:25:25.935Z,52.72
2018-08-22T03:27:57.888Z,54.05
2018-08-22T03:30:29.932Z,56.36
2018-08-22T03:33:01.885Z,57.90
2018-08-22T03:35:33.851Z,59.43
2018-08-22T03:38:05.980Z,60.66
2018-08-22T03:40:37.598Z,61.59
2018-08-22T03:43:09.697Z,61.08
2018-08-22T03:45:41.521Z,61.16
2018-08-22T03:48:13.380Z,60.85
2018-08-22T03:50:45.159Z,61.04
2018-08-22T03:53:17.537Z,62.75
2018-08-22T03:55:49.262Z,63.06
2018-08-22T03:58:21.336Z,61.85
2018-08-22T04:00:53.242Z,61.16
2018-08-22T04:03:24.947Z,62.26
2018-08-22T04:05:56.791Z,61.07
2018-08-22T04:08:28.659Z,58.32
2018-08-22T04:11:00.319Z,57.72
2018-08-22T04:13:32.196Z,58.84
2018-08-22T04:16:04.134Z,62.50
2018-08-22T04:18:35.888Z,63.01
2018-08-22T04:21:07.666Z,62.64
2018-08-22T04:23:39.565Z,62.81
2018-08-22T04:26:11.800Z,63.47
2018-08-22T04:28:43.955Z,58.56
2018-08-22T04:31:16.509Z,53.25
2018-08-22T04:33:48.603Z,61.60
2018-08-22T04:36:22.444Z,64.13
2018-08-22T04:38:55.069Z,66.21
2018-08-22T04:41:26.829Z,66.46
2018-08-22T04:43:59.311Z,65.82
2018-08-22T04:46:31.467Z,64.08
2018-08-22T04:49:03.591Z,43.65
2018-08-22T04:51:35.781Z,44.90
2018-08-22T04:54:07.713Z,53.87
2018-08-22T04:56:39.969Z,61.54
2018-08-22T04:59:11.946Z,64.45
2018-08-22T05:01:43.633Z,64.47
2018-08-22T05:04:16.715Z,64.89
2018-08-22T05:06:48.884Z,65.89
2018-08-22T05:09:23.270Z,66.67
2018-08-22T05:11:57.570Z,67.33
2018-08-22T05:14:29.950Z,66.62
2018-08-22T05:17:01.674Z,67.41
2018-08-22T05:19:33.440Z,67.57
2018-08-22T05:22:05.108Z,65.39
2018-08-22T05:24:37.203Z,65.52
2018-08-22T05:27:08.812Z,65.27
2018-08-22T05:29:40.898Z,62.60
2018-08-22T05:32:12.584Z,61.14
2018-08-22T05:34:49.090Z,62.02
2018-08-22T05:37:20.863Z,63.07
2018-08-22T05:39:52.687Z,63.43
2018-08-22T05:49:25.376Z,63.40
2018-08-22T05:51:56.897Z,58.10
2018-08-22T05:54:28.544Z,52.41
2018-08-22T05:57:01.022Z,52.50
2018-08-22T05:59:33.005Z,52.36
2018-08-22T06:02:04.609Z,53.15
2018-08-22T06:04:36.311Z,54.89
2018-08-22T06:07:08.513Z,55.48
2018-08-22T06:09:41.434Z,56.52
2018-08-22T06:12:13.186Z,57.27
2018-08-22T06:14:45.315Z,57.68
2018-08-22T06:17:17.845Z,56.92
2018-08-22T06:19:50.139Z,57.63
2018-08-22T06:22:22.151Z,57.46
2018-08-22T06:24:54.289Z,57.26
2018-08-22T06:27:25.881Z,58.32
2018-08-22T06:29:57.286Z,58.42
2018-08-22T06:32:29.309Z,58.93
2018-08-22T06:35:01.505Z,59.65
2018-08-22T06:37:32.812Z,60.34
2018-08-22T06:40:04.998Z,60.91
2018-08-22T06:42:36.288Z,60.88
2018-08-22T06:45:08.714Z,60.49
2018-08-22T06:47:40.353Z,61.42
2018-08-22T06:50:12.413Z,61.58
2018-08-22T06:52:44.026Z,60.65
2018-08-22T06:55:15.575Z,60.71
2018-08-22T06:57:46.922Z,61.33
2018-08-22T07:00:18.459Z,61.60
2018-08-22T07:02:49.936Z,61.82
2018-08-22T07:05:21.565Z,62.44
2018-08-22T07:07:52.915Z,60.71
2018-08-22T07:10:24.558Z,61.04
2018-08-22T07:12:56.000Z,60.75
2018-08-22T07:15:27.586Z,60.73
2018-08-22T07:17:59.054Z,60.98
2018-08-22T07:20:30.518Z,62.02
2018-08-22T07:23:02.107Z,60.53
2018-08-22T07:25:33.597Z,60.66
2018-08-22T07:28:05.142Z,61.55
2018-08-22T07:30:36.778Z,60.91
2018-08-22T07:33:08.275Z,61.52
2018-08-22T07:35:40.116Z,60.96
2018-08-22T07:38:11.730Z,60.39
2018-08-22T07:40:43.194Z,61.07
2018-08-22T07:43:14.632Z,61.03
2018-08-22T07:45:45.964Z,61.11
2018-08-22T07:48:17.512Z,61.68
2018-08-22T07:50:50.381Z,61.15
2018-08-22T07:53:21.870Z,61.01
2018-08-22T07:55:53.672Z,61.53
2018-08-22T07:58:25.151Z,61.94
2018-08-22T08:00:56.836Z,61.46
2018-08-22T08:03:28.506Z,61.48
2018-08-22T08:05:59.733Z,60.32
2018-08-22T08:08:31.676Z,61.28
2018-08-22T08:11:03.426Z,62.14
2018-08-22T08:13:34.821Z,61.47
2018-08-22T08:16:06.448Z,60.93
2018-08-22T08:18:38.087Z,61.45
2018-08-22T08:21:09.782Z,61.67
2018-08-22T08:23:41.589Z,61.87
2018-08-22T08:26:13.350Z,62.23
2018-08-22T08:28:45.109Z,61.75
2018-08-22T08:31:16.806Z,61.69
2018-08-22T08:33:48.496Z,61.63
2018-08-22T08:36:20.317Z,62.95
2018-08-22T08:38:51.761Z,62.71
2018-08-22T08:41:23.585Z,62.16
2018-08-22T08:43:55.076Z,62.16
2018-08-22T08:46:26.525Z,61.70
2018-08-22T08:48:57.921Z,62.50
2018-08-22T08:51:29.933Z,62.00
2018-08-22T08:54:01.500Z,61.73
2018-08-22T08:56:33.178Z,61.36
2018-08-22T08:59:04.879Z,61.00
2018-08-22T09:01:36.669Z,62.16
2018-08-22T09:04:08.043Z,61.50
2018-08-22T09:06:39.888Z,61.63
2018-08-22T09:09:12.077Z,62.18
2018-08-22T09:11:50.454Z,62.15
2018-08-22T09:14:22.313Z,62.51
2018-08-22T09:16:53.825Z,61.84
2018-08-22T09:19:25.407Z,61.85
2018-08-22T09:21:56.795Z,62.37
2018-08-22T09:24:28.114Z,63.07
2018-08-22T09:26:59.724Z,61.94
2018-08-22T09:29:31.231Z,61.72
2018-08-22T09:32:03.094Z,61.45
2018-08-22T09:34:34.488Z,61.78
2018-08-22T09:37:06.209Z,61.60
2018-08-22T09:39:37.643Z,61.35
2018-08-22T09:42:09.092Z,62.05
2018-08-22T09:44:40.738Z,61.49
2018-08-22T09:47:12.164Z,62.28
2018-08-22T09:49:43.697Z,61.77
2018-08-22T09:52:16.311Z,62.12
2018-08-22T09:54:57.495Z,62.14
2018-08-22T09:57:29.968Z,61.88
2018-08-22T10:00:01.681Z,60.90
2018-08-22T10:02:33.039Z,61.70
2018-08-22T10:05:04.707Z,61.84
2018-08-22T10:07:36.407Z,62.23
2018-08-22T10:10:08.013Z,61.27
2018-08-22T10:12:39.485Z,61.94
2018-08-22T10:15:11.147Z,61.09
2018-08-22T10:17:42.556Z,62.45
2018-08-22T10:20:14.240Z,62.67
2018-08-22T10:22:45.887Z,62.13
2018-08-22T10:25:17.377Z,62.32
2018-08-22T10:27:49.014Z,62.13
2018-08-22T10:30:20.432Z,61.62
2018-08-22T10:32:52.446Z,62.50
2018-08-22T10:35:23.959Z,61.42
2018-08-22T10:37:55.593Z,61.87
2018-08-22T10:40:27.222Z,62.67
2018-08-22T10:42:58.776Z,62.66
2018-08-22T10:45:30.355Z,62.92
2018-08-22T10:48:01.874Z,62.09
2018-08-22T10:50:33.528Z,62.61
2018-08-22T10:53:05.272Z,62.77
2018-08-22T10:55:36.844Z,62.93
2018-08-22T10:58:08.459Z,61.56
2018-08-22T11:00:39.727Z,62.63
2018-08-22T11:03:11.333Z,61.97
2018-08-22T11:05:43.039Z,62.72
2018-08-22T11:08:14.691Z,62.17
2018-08-22T11:10:46.385Z,62.68
2018-08-22T11:13:18.401Z,62.12
2018-08-22T11:15:50.119Z,62.12
2018-08-22T11:18:22.186Z,61.67
2018-08-22T11:20:51.974Z,61.64
2018-08-22T11:23:34.530Z,62.00
2018-08-22T11:26:15.814Z,62.25
2018-08-22T11:28:56.823Z,61.73
2018-08-22T11:31:37.799Z,62.05
2018-08-22T11:34:19.255Z,63.29
2018-08-22T11:37:13.123Z,62.16
2018-08-22T11:39:47.544Z,62.44
2018-08-22T11:42:19.041Z,61.62
2018-08-22T11:44:50.679Z,61.53
2018-08-22T11:47:22.315Z,62.24
2018-08-22T11:49:53.797Z,62.33
2018-08-22T11:52:25.370Z,62.09
2018-08-22T11:54:57.078Z,61.92
2018-08-22T11:57:28.456Z,61.63
2018-08-22T11:59:59.934Z,61.13
2018-08-22T12:02:31.617Z,61.35
2018-08-22T12:05:03.441Z,62.05
2018-08-22T12:07:35.122Z,61.88
2018-08-22T12:10:06.940Z,61.55
2018-08-22T12:12:38.870Z,61.68
2018-08-22T12:15:10.692Z,61.41
2018-08-22T12:17:42.437Z,61.36
2018-08-22T12:20:14.192Z,62.24
2018-08-22T12:22:46.233Z,62.58
2018-08-22T12:25:19.152Z,61.41
2018-08-22T12:27:50.589Z,62.37
2018-08-22T12:30:22.204Z,61.41
2018-08-22T12:32:53.792Z,62.87
2018-08-22T12:35:25.580Z,62.42
2018-08-22T12:37:56.813Z,61.77
2018-08-22T12:40:28.521Z,61.65
2018-08-22T12:43:00.124Z,62.69
2018-08-22T12:45:31.784Z,62.96
2018-08-22T12:48:03.687Z,62.86
2018-08-22T12:50:35.107Z,61.69
2018-08-22T12:53:06.784Z,62.93
2018-08-22T12:55:38.446Z,62.13
2018-08-22T12:58:10.007Z,62.51
2018-08-22T13:00:41.517Z,62.11
2018-08-22T13:03:13.184Z,62.16
2018-08-22T13:05:45.186Z,62.70
2018-08-22T13:08:16.491Z,62.86
2018-08-22T13:10:48.188Z,62.04
2018-08-22T13:13:19.713Z,62.06
2018-08-22T13:15:51.413Z,63.00
2018-08-22T13:18:23.133Z,62.73
2018-08-22T13:20:54.743Z,62.86
2018-08-22T13:23:26.162Z,61.85
2018-08-22T13:25:57.895Z,63.10
2018-08-22T13:28:29.450Z,62.92
2018-08-22T13:31:01.260Z,62.66
2018-08-22T13:33:32.620Z,63.93
2018-08-22T13:36:03.944Z,62.87
2018-08-22T13:38:35.539Z,64.31
2018-08-22T13:41:07.338Z,62.98
2018-08-22T13:43:39.084Z,63.68
2018-08-22T13:46:10.702Z,64.09
2018-08-22T13:48:42.152Z,64.03
2018-08-22T13:51:13.802Z,63.79
2018-08-22T13:53:45.421Z,63.37
2018-08-22T13:56:16.934Z,64.53
2018-08-22T13:58:48.490Z,64.26
2018-08-22T14:01:20.290Z,63.69
2018-08-22T14:03:52.042Z,63.89
2018-08-22T14:06:23.719Z,63.35
2018-08-22T14:08:55.324Z,65.13
2018-08-22T14:11:27.084Z,64.05
2018-08-22T14:13:58.644Z,64.83
2018-08-22T14:16:30.295Z,64.29
2018-08-22T14:19:01.807Z,64.00
2018-08-22T14:21:32.968Z,64.26
2018-08-22T14:24:04.446Z,65.57
2018-08-22T14:26:35.939Z,64.70
2018-08-22T14:29:07.661Z,64.79
2018-08-22T14:31:39.411Z,64.91
2018-08-22T14:34:11.505Z,64.67
2018-08-22T14:36:43.134Z,64.69
2018-08-22T14:39:14.843Z,65.08
2018-08-22T14:41:46.486Z,65.45
2018-08-22T14:44:17.750Z,64.87
2018-08-22T14:46:49.385Z,65.26
2018-08-22T14:49:21.037Z,65.87
2018-08-22T14:51:52.448Z,66.44
2018-08-22T14:54:24.201Z,65.80
2018-08-22T14:56:55.763Z,65.95
2018-08-22T14:59:27.702Z,65.85
2018-08-22T15:01:59.369Z,66.51
2018-08-22T15:04:31.037Z,66.73
2018-08-22T15:07:03.300Z,66.68
2018-08-22T15:09:34.786Z,67.01
2018-08-22T15:12:06.610Z,66.94
2018-08-22T15:14:38.341Z,66.56
2018-08-22T15:17:10.410Z,66.84
2018-08-22T15:19:41.845Z,66.66
2018-08-22T15:22:13.600Z,66.42
2018-08-22T15:24:47.023Z,66.00
2018-08-22T15:27:20.599Z,67.16
2018-08-22T15:29:52.361Z,66.58
2018-08-22T15:32:24.569Z,67.15
2018-08-22T15:34:57.442Z,67.19
2018-08-22T15:37:29.207Z,66.87
2018-08-22T15:40:00.680Z,67.36
2018-08-22T15:42:32.585Z,66.18
2018-08-22T15:45:04.444Z,67.81
2018-08-22T15:47:36.040Z,66.66
2018-08-22T15:50:07.774Z,66.75
2018-08-22T15:52:39.760Z,66.86
2018-08-22T15:55:18.556Z,67.96
2018-08-22T15:58:02.263Z,67.30
2018-08-22T16:00:52.511Z,67.64
2018-08-22T16:03:25.343Z,67.33
2018-08-22T16:05:57.461Z,68.00
2018-08-22T16:08:29.845Z,67.78
2018-08-22T16:11:05.873Z,67.98
2018-08-22T16:13:38.349Z,67.37
2018-08-22T16:16:09.798Z,67.66
2018-08-22T16:18:41.592Z,67.04
2018-08-22T16:21:13.089Z,67.18
2018-08-22T16:23:44.699Z,67.16
2018-08-22T16:26:16.358Z,68.07
2018-08-22T16:28:55.176Z,67.25
2018-08-22T16:31:35.090Z,67.24
2018-08-22T16:34:06.751Z,67.76
2018-08-22T16:36:39.909Z,66.53
2018-08-22T16:39:11.819Z,67.35
2018-08-22T16:41:43.527Z,67.31
2018-08-22T16:44:15.489Z,66.06
2018-08-22T16:46:47.053Z,66.69
2018-08-22T16:49:19.043Z,66.31
2018-08-22T16:51:51.114Z,66.53
2018-08-22T16:54:22.558Z,66.34
2018-08-22T16:56:54.051Z,65.39
2018-08-22T16:59:25.715Z,64.59
2018-08-22T17:01:57.387Z,65.92
2018-08-22T17:04:29.220Z,65.15
2018-08-22T17:07:05.430Z,64.93
2018-08-22T17:09:37.287Z,65.40
2018-08-22T17:12:08.845Z,65.30
2018-08-22T17:14:40.494Z,66.24
2018-08-22T17:17:12.011Z,66.24
2018-08-22T17:19:44.033Z,66.22
2018-08-22T17:22:15.636Z,65.84
2018-08-22T17:24:47.971Z,65.91
2018-08-22T17:27:19.612Z,66.33
2018-08-22T17:29:50.885Z,66.04
2018-08-22T17:32:22.538Z,65.76
2018-08-22T17:34:54.257Z,66.30
2018-08-22T17:37:25.746Z,65.69
2018-08-22T17:39:57.349Z,66.00
2018-08-22T17:42:29.100Z,66.17
2018-08-22T17:45:00.632Z,66.53
2018-08-22T17:47:32.249Z,65.74
2018-08-22T17:50:10.936Z,65.78
2018-08-22T17:52:42.359Z,66.81
2018-08-22T17:55:14.113Z,66.59
2018-08-22T17:57:45.603Z,66.68
2018-08-22T18:00:17.345Z,65.26
2018-08-22T18:02:49.778Z,65.30
2018-08-22T18:05:21.458Z,64.76
2018-08-22T18:07:52.906Z,65.66
2018-08-22T18:10:24.581Z,65.18
2018-08-22T18:12:56.837Z,64.92
2018-08-22T18:15:28.243Z,65.88
2018-08-22T18:17:59.948Z,64.17
2018-08-22T18:20:31.930Z,64.46
2018-08-22T18:23:03.031Z,63.75
2018-08-22T18:25:34.864Z,65.08
2018-08-22T18:28:07.671Z,64.89
2018-08-22T18:30:39.952Z,63.98
2018-08-22T18:33:11.357Z,64.29
2018-08-22T18:35:45.771Z,64.20
2018-08-22T18:38:17.496Z,64.34
2018-08-22T18:41:20.514Z,63.95
2018-08-22T18:43:52.042Z,64.73
2018-08-22T18:46:24.082Z,64.18
2018-08-22T18:48:55.749Z,64.49
2018-08-22T18:51:28.068Z,65.30
2018-08-22T18:53:59.941Z,64.81
2018-08-22T18:56:31.589Z,65.06
2018-08-22T18:59:11.592Z,64.35
2018-08-22T19:01:43.290Z,64.36
2018-08-22T19:04:15.029Z,64.28
2018-08-22T19:06:46.855Z,64.41
2018-08-22T19:09:18.540Z,64.23
2018-08-22T19:11:50.747Z,64.14
2018-08-22T19:14:31.579Z,65.13
2018-08-22T19:17:03.324Z,64.17
2018-08-22T19:19:39.830Z,64.33
2018-08-22T19:22:11.574Z,64.10
2018-08-22T19:24:48.418Z,65.12
2018-08-22T19:27:20.741Z,65.54
2018-08-22T19:29:52.419Z,65.12
2018-08-22T19:32:23.862Z,64.87
2018-08-22T19:34:58.153Z,64.36
2018-08-22T19:37:30.260Z,64.67
2018-08-22T19:40:06.952Z,64.59
2018-08-22T19:42:40.805Z,64.30
2018-08-22T19:45:12.597Z,64.60
2018-08-22T19:47:43.979Z,65.03
2018-08-22T19:50:15.471Z,64.46
2018-08-22T19:52:47.182Z,64.71
2018-08-22T19:55:18.791Z,65.37
2018-08-22T19:57:50.479Z,64.38
2018-08-22T20:00:21.682Z,64.30
2018-08-22T20:02:53.391Z,65.41
2018-08-22T20:05:24.949Z,65.40
2018-08-22T20:07:56.678Z,64.52
2018-08-22T20:10:29.037Z,65.18
2018-08-22T20:13:00.742Z,65.02
2018-08-22T20:15:32.172Z,64.47
2018-08-22T20:18:03.937Z,65.01
2018-08-22T20:20:35.520Z,64.32
2018-08-22T20:23:06.758Z,64.90
2018-08-22T20:25:38.874Z,63.97
2018-08-22T20:28:10.541Z,64.67
2018-08-22T20:30:42.022Z,64.13
2018-08-22T20:33:13.601Z,63.91
2018-08-22T20:35:45.954Z,64.26
2018-08-22T20:38:17.742Z,64.71
2018-08-22T20:40:51.465Z,63.69
2018-08-22T20:43:27.595Z,64.11
2018-08-22T20:45:59.276Z,63.80
2018-08-22T20:48:30.915Z,63.89
2018-08-22T20:51:02.569Z,64.01
2018-08-22T20:53:33.760Z,63.18
2018-08-22T20:56:05.295Z,64.78
2018-08-22T20:58:36.884Z,63.50
2018-08-22T21:01:08.577Z,62.80
2018-08-22T21:10:42.224Z,63.13
2018-08-22T21:13:30.607Z,62.89
2018-08-22T21:16:02.073Z,62.83
2018-08-22T21:18:33.814Z,62.74
2018-08-22T21:21:10.804Z,62.17
2018-08-22T21:23:43.226Z,62.73
2018-08-22T21:26:21.965Z,63.32
2018-08-22T21:28:53.606Z,62.61
2018-08-22T21:31:25.145Z,63.19
2018-08-22T21:33:57.145Z,62.38
2018-08-22T21:36:28.906Z,62.52
2018-08-22T21:39:00.432Z,62.43
2018-08-22T21:41:31.883Z,62.23
2018-08-22T21:44:03.364Z,62.43
2018-08-22T21:46:34.843Z,62.74
2018-08-22T21:49:11.161Z,62.07
2018-08-22T21:51:43.531Z,63.06
2018-08-22T21:54:15.112Z,61.99
2018-08-22T21:56:47.422Z,62.60
2018-08-22T21:59:19.090Z,61.88
2018-08-22T22:01:55.330Z,62.08
2018-08-22T22:04:31.262Z,63.22
2018-08-22T22:07:03.272Z,61.75
2018-08-22T22:09:35.286Z,62.98
2018-08-22T22:12:11.233Z,62.63
2018-08-22T22:14:44.423Z,62.86
2018-08-22T22:17:16.635Z,62.83
2018-08-22T22:19:48.698Z,62.52
2018-08-22T22:22:20.609Z,62.82
2018-08-22T22:24:56.380Z,62.33
2018-08-22T22:27:28.989Z,63.01
2018-08-22T22:30:05.346Z,63.07
2018-08-22T22:32:38.203Z,62.46
2018-08-22T22:35:09.675Z,63.42
2018-08-22T22:37:41.155Z,62.29
2018-08-22T22:40:12.795Z,62.68
2018-08-22T22:42:44.459Z,63.14
2018-08-22T22:45:16.715Z,63.18
2018-08-22T22:47:48.117Z,62.68
2018-08-22T22:50:19.629Z,62.69
2018-08-22T22:52:51.286Z,63.52
2018-08-22T22:55:22.795Z,62.71
2018-08-22T22:57:54.459Z,62.81
2018-08-22T23:00:26.406Z,62.68
2018-08-22T23:03:02.569Z,62.67
2018-08-22T23:05:33.855Z,63.74
2018-08-22T23:08:05.553Z,63.67
2018-08-22T23:10:37.137Z,62.80
2018-08-22T23:13:08.741Z,62.76
2018-08-22T23:15:39.913Z,63.08
2018-08-22T23:18:11.576Z,63.69
2018-08-22T23:20:43.987Z,63.67
2018-08-22T23:23:31.320Z,62.89
2018-08-22T23:26:08.950Z,64.32
2018-08-22T23:28:41.041Z,63.70
2018-08-22T23:31:12.886Z,62.92
2018-08-22T23:33:44.784Z,63.11
2018-08-22T23:36:16.538Z,64.03
2018-08-22T23:38:48.367Z,63.30
2018-08-22T23:41:20.226Z,62.98
2018-08-22T23:43:53.252Z,63.77
2018-08-22T23:46:24.782Z,64.21
2018-08-22T23:48:58.645Z,63.38
2018-08-22T23:51:30.278Z,63.34
2018-08-22T23:54:02.526Z,63.62
2018-08-22T23:56:34.253Z,63.75
2018-08-22T23:59:06.654Z,62.84
